createdAt,value
2023-08-29T00:02:04.617Z,99727.97
2023-08-29T00:04:33.941Z,99726.56
2023-08-29T00:07:02.399Z,99730.88
2023-08-29T00:09:31.286Z,99716.16
2023-08-29T00:11:59.253Z,99715.19
2023-08-29T00:14:27.879Z,99710.97
2023-08-29T00:16:55.906Z,99711.53
2023-08-29T00:19:23.991Z,99708.09
2023-08-29T00:21:54.228Z,99711.03
2023-08-29T00:24:22.054Z,99711.72
2023-08-29T00:26:50.449Z,99710.19
2023-08-29T00:29:18.841Z,99708.09
2023-08-29T00:31:46.898Z,99700.47
2023-08-29T00:34:17.213Z,99706.13
2023-08-29T00:36:45.238Z,99697.78
2023-08-29T00:39:15.727Z,99706.66
2023-08-29T00:41:46.244Z,99703.16
2023-08-29T00:44:14.714Z,99699.63
2023-08-29T00:46:43.536Z,99703.84
2023-08-29T00:49:12.402Z,99707.56
2023-08-29T00:51:41.973Z,99692.78
2023-08-29T00:54:10.713Z,99698.25
2023-08-29T00:56:41.352Z,99707.59
2023-08-29T00:59:10.551Z,99707.75
2023-08-29T01:01:38.604Z,99712.53
2023-08-29T01:04:08.016Z,99724.50
2023-08-29T01:06:37.530Z,99719.28
2023-08-29T01:09:07.907Z,99718.88
2023-08-29T01:11:47.895Z,99720.31
2023-08-29T01:14:25.663Z,99718.19
2023-08-29T01:17:01.711Z,99720.69
2023-08-29T01:19:31.003Z,99723.94
2023-08-29T01:22:23.920Z,99737.22
2023-08-29T01:24:59.394Z,99727.34
2023-08-29T01:27:30.897Z,99737.19
2023-08-29T01:30:00.545Z,99737.59
2023-08-29T01:32:29.455Z,99749.72
2023-08-29T01:34:59.007Z,99745.03
2023-08-29T01:37:27.119Z,99744.06
2023-08-29T01:39:55.156Z,99748.81
2023-08-29T01:42:24.100Z,99753.03
2023-08-29T01:44:53.673Z,99739.22
2023-08-29T01:47:22.762Z,99743.00
2023-08-29T01:49:52.136Z,99746.13
2023-08-29T01:52:20.805Z,99759.41
2023-08-29T01:54:48.938Z,99760.69
2023-08-29T01:57:21.946Z,99770.66
2023-08-29T01:59:50.864Z,99771.41
2023-08-29T02:02:21.774Z,99770.38
2023-08-29T02:04:49.786Z,99766.84
2023-08-29T02:07:17.746Z,99773.03
2023-08-29T02:09:46.190Z,99772.75
2023-08-29T02:12:14.306Z,99762.41
2023-08-29T02:14:43.647Z,99765.28
2023-08-29T02:17:11.724Z,99768.22
2023-08-29T02:19:41.513Z,99766.69
2023-08-29T02:22:09.779Z,99761.44
2023-08-29T02:24:38.184Z,99759.91
2023-08-29T02:27:06.802Z,99765.00
2023-08-29T02:29:35.198Z,99770.03
2023-08-29T02:32:04.290Z,99760.19
2023-08-29T02:34:32.265Z,99747.78
2023-08-29T02:37:02.540Z,99748.69
2023-08-29T02:39:31.673Z,99757.22
2023-08-29T02:41:59.902Z,99751.19
2023-08-29T02:44:29.173Z,99744.72
2023-08-29T02:46:57.184Z,99744.13
2023-08-29T02:49:25.732Z,99747.22
2023-08-29T02:51:53.744Z,99738.25
2023-08-29T02:54:23.135Z,99749.09
2023-08-29T02:56:52.702Z,99743.75
2023-08-29T02:59:20.681Z,99754.31
2023-08-29T03:01:50.367Z,99754.47
2023-08-29T03:04:18.401Z,99751.38
2023-08-29T03:06:47.904Z,99754.84
2023-08-29T03:09:15.916Z,99753.31
2023-08-29T03:11:45.779Z,99760.81
2023-08-29T03:14:14.367Z,99754.88
2023-08-29T03:16:42.400Z,99762.88
2023-08-29T03:19:11.318Z,99765.00
2023-08-29T03:21:39.793Z,99771.75
2023-08-29T03:24:09.291Z,99766.97
2023-08-29T03:26:37.968Z,99755.06
2023-08-29T03:29:07.346Z,99748.59
2023-08-29T03:31:35.527Z,99752.78
2023-08-29T03:34:04.888Z,99743.34
2023-08-29T03:36:32.897Z,99748.63
2023-08-29T03:39:01.346Z,99747.03
2023-08-29T03:41:30.470Z,99740.97
2023-08-29T03:43:59.382Z,99731.97
2023-08-29T03:46:29.158Z,99726.84
2023-08-29T03:48:59.733Z,99722.03
2023-08-29T03:51:27.773Z,99706.00
2023-08-29T03:53:55.762Z,99704.59
2023-08-29T03:56:25.516Z,99701.22
2023-08-29T03:58:54.176Z,99696.88
2023-08-29T04:01:23.142Z,99701.56
2023-08-29T04:03:54.333Z,99691.41
2023-08-29T04:06:23.761Z,99697.94
2023-08-29T04:08:51.795Z,99694.66
2023-08-29T04:11:20.240Z,99692.53
2023-08-29T04:13:48.292Z,99688.28
2023-08-29T04:16:16.796Z,99687.75
2023-08-29T04:18:45.596Z,99679.91
2023-08-29T04:21:14.958Z,99677.38
2023-08-29T04:23:43.966Z,99681.34
2023-08-29T04:26:12.960Z,99674.72
2023-08-29T04:28:40.955Z,99671.72
2023-08-29T04:31:10.635Z,99670.78
2023-08-29T04:33:38.828Z,99672.16
2023-08-29T04:36:07.429Z,99674.59
2023-08-29T04:38:37.707Z,99684.16
2023-08-29T04:41:06.143Z,99679.22
2023-08-29T04:43:34.115Z,99683.91
2023-08-29T04:46:03.139Z,99691.72
2023-08-29T04:48:31.250Z,99694.44
2023-08-29T04:51:00.131Z,99699.97
2023-08-29T04:53:28.218Z,99691.22
2023-08-29T04:56:02.821Z,99688.06
2023-08-29T04:58:35.713Z,99692.44
2023-08-29T05:01:05.331Z,99692.28
2023-08-29T05:03:34.018Z,99694.94
2023-08-29T05:06:02.090Z,99690.69
2023-08-29T05:08:36.372Z,99695.06
2023-08-29T05:11:07.552Z,99688.84
2023-08-29T05:13:37.119Z,99692.06
2023-08-29T05:16:06.666Z,99694.16
2023-08-29T05:18:35.284Z,99682.75
2023-08-29T05:21:05.182Z,99683.63
2023-08-29T05:23:33.158Z,99687.13
2023-08-29T05:26:02.042Z,99691.06
2023-08-29T05:28:31.842Z,99696.00
2023-08-29T05:30:59.632Z,99692.59
2023-08-29T05:33:28.625Z,99677.97
2023-08-29T05:35:56.584Z,99688.41
2023-08-29T05:38:28.903Z,99682.84
2023-08-29T05:40:57.491Z,99688.22
2023-08-29T05:43:26.502Z,99683.16
2023-08-29T05:45:58.354Z,99671.44
2023-08-29T05:48:26.922Z,99674.66
2023-08-29T05:50:55.368Z,99678.72
2023-08-29T05:53:23.338Z,99680.47
2023-08-29T05:55:52.296Z,99685.63
2023-08-29T05:58:22.792Z,99683.94
2023-08-29T06:00:52.019Z,99683.22
2023-08-29T06:03:23.250Z,99688.38
2023-08-29T06:05:52.572Z,99688.09
2023-08-29T06:08:20.782Z,99683.34
2023-08-29T06:10:49.040Z,99680.63
2023-08-29T06:13:17.954Z,99680.00
2023-08-29T06:15:46.009Z,99676.88
2023-08-29T06:18:14.122Z,99681.31
2023-08-29T06:20:44.495Z,99676.19
2023-08-29T06:23:12.652Z,99679.88
2023-08-29T06:25:40.801Z,99676.03
2023-08-29T06:28:09.378Z,99680.00
2023-08-29T06:30:38.363Z,99676.41
2023-08-29T06:33:08.097Z,99678.63
2023-08-29T06:35:38.995Z,99689.28
2023-08-29T06:38:09.791Z,99688.19
2023-08-29T06:40:38.151Z,99687.69
2023-08-29T06:43:07.006Z,99690.00
2023-08-29T06:45:36.032Z,99691.50
2023-08-29T06:48:04.256Z,99694.31
2023-08-29T06:50:32.660Z,99689.63
2023-08-29T06:53:02.057Z,99684.84
2023-08-29T06:55:33.079Z,99692.53
2023-08-29T06:58:02.048Z,99687.94
2023-08-29T07:00:30.560Z,99684.88
2023-08-29T07:02:58.610Z,99674.72
2023-08-29T07:05:28.109Z,99682.84
2023-08-29T07:07:56.927Z,99684.81
2023-08-29T07:10:25.327Z,99683.97
2023-08-29T07:12:55.572Z,99685.25
2023-08-29T07:15:23.937Z,99686.78
2023-08-29T07:17:52.419Z,99686.38
2023-08-29T07:20:20.969Z,99685.44
2023-08-29T07:22:48.985Z,99685.75
2023-08-29T07:25:21.406Z,99686.78
2023-08-29T07:27:49.425Z,99689.00
2023-08-29T07:30:18.776Z,99686.09
2023-08-29T07:32:47.451Z,99696.41
2023-08-29T07:35:15.636Z,99694.63
2023-08-29T07:37:43.930Z,99698.41
2023-08-29T07:40:12.920Z,99705.81
2023-08-29T07:42:40.946Z,99697.31
2023-08-29T07:45:10.646Z,99705.38
2023-08-29T07:47:39.883Z,99702.06
2023-08-29T07:50:09.033Z,99700.44
2023-08-29T07:52:40.329Z,99702.50
2023-08-29T07:55:10.743Z,99710.00
2023-08-29T07:57:39.331Z,99708.53
2023-08-29T08:00:11.184Z,99717.00
2023-08-29T08:02:41.778Z,99716.22
2023-08-29T08:05:12.159Z,99720.38
2023-08-29T08:07:40.465Z,99720.06
2023-08-29T08:10:10.609Z,99716.13
2023-08-29T08:12:39.867Z,99717.25
2023-08-29T08:15:09.536Z,99724.66
2023-08-29T08:17:38.457Z,99725.84
2023-08-29T08:20:09.593Z,99724.16
2023-08-29T08:22:39.179Z,99727.38
2023-08-29T08:25:08.735Z,99731.91
2023-08-29T08:27:37.957Z,99734.78
2023-08-29T08:30:09.226Z,99734.63
2023-08-29T08:32:37.839Z,99742.84
2023-08-29T08:35:08.949Z,99748.25
2023-08-29T08:37:38.416Z,99740.16
2023-08-29T08:40:10.718Z,99741.84
2023-08-29T08:42:41.543Z,99742.50
2023-08-29T08:45:10.413Z,99736.44
2023-08-29T08:47:39.393Z,99740.16
2023-08-29T08:50:11.140Z,99746.25
2023-08-29T08:52:41.894Z,99744.88
2023-08-29T08:55:11.498Z,99744.38
2023-08-29T08:57:39.765Z,99743.44
2023-08-29T09:00:10.221Z,99741.72
2023-08-29T09:02:39.607Z,99747.25
2023-08-29T09:05:11.002Z,99751.25
2023-08-29T09:07:42.992Z,99751.34
2023-08-29T09:10:13.262Z,99750.88
2023-08-29T09:12:49.238Z,99742.22
2023-08-29T09:15:20.781Z,99740.31
2023-08-29T09:17:49.935Z,99746.22
2023-08-29T09:20:20.174Z,99749.41
2023-08-29T09:22:49.749Z,99747.81
2023-08-29T09:25:17.937Z,99754.97
2023-08-29T09:27:48.671Z,99748.56
2023-08-29T09:30:18.369Z,99752.53
2023-08-29T09:32:48.703Z,99753.19
2023-08-29T09:35:20.877Z,99756.91
2023-08-29T09:37:53.800Z,99758.72
2023-08-29T09:42:55.960Z,99753.44
2023-08-29T09:45:24.357Z,99756.19
2023-08-29T09:47:56.600Z,99753.66
2023-08-29T09:50:27.316Z,99752.34
2023-08-29T09:52:56.543Z,99745.09
2023-08-29T09:55:25.381Z,99745.38
2023-08-29T09:57:55.053Z,99745.44
2023-08-29T10:00:24.465Z,99748.31
2023-08-29T10:02:56.807Z,99742.19
2023-08-29T10:05:31.008Z,99746.28
2023-08-29T10:08:03.186Z,99735.47
2023-08-29T10:10:32.275Z,99734.31
2023-08-29T10:13:01.726Z,99736.91
2023-08-29T10:15:38.627Z,99724.88
2023-08-29T10:18:08.170Z,99722.25
2023-08-29T10:20:41.419Z,99725.91
2023-08-29T10:23:12.231Z,99722.94
2023-08-29T10:25:41.632Z,99720.19
2023-08-29T10:28:12.149Z,99722.97
2023-08-29T10:30:45.116Z,99723.28
2023-08-29T10:33:13.821Z,99713.97
2023-08-29T10:35:43.894Z,99720.28
2023-08-29T10:38:16.758Z,99714.59
2023-08-29T10:40:45.761Z,99719.22
2023-08-29T10:43:21.890Z,99721.41
2023-08-29T10:45:51.292Z,99718.66
2023-08-29T10:48:20.235Z,99718.00
2023-08-29T10:51:12.351Z,99702.53
2023-08-29T10:53:43.547Z,99705.06
2023-08-29T10:56:11.903Z,99710.94
2023-08-29T10:58:41.391Z,99707.13
2023-08-29T11:01:29.848Z,99703.94
2023-08-29T11:03:59.803Z,99701.56
2023-08-29T11:06:53.585Z,99698.81
2023-08-29T11:09:23.504Z,99692.03
2023-08-29T11:12:09.490Z,99692.97
2023-08-29T11:15:01.446Z,99699.22
2023-08-29T11:17:30.400Z,99697.84
2023-08-29T11:20:02.198Z,99690.94
2023-08-29T11:22:32.923Z,99690.84
2023-08-29T11:25:01.234Z,99691.28
2023-08-29T11:27:30.885Z,99697.28
2023-08-29T11:30:17.947Z,99686.19
2023-08-29T11:32:52.222Z,99677.91
2023-08-29T11:35:21.994Z,99684.16
2023-08-29T11:37:51.372Z,99674.94
2023-08-29T11:40:26.613Z,99681.41
2023-08-29T11:43:29.814Z,99681.56
2023-08-29T11:46:02.940Z,99676.44
2023-08-29T11:48:33.840Z,99678.03
2023-08-29T11:51:04.729Z,99675.41
2023-08-29T11:53:36.947Z,99676.16
2023-08-29T11:56:06.993Z,99676.16
2023-08-29T11:58:36.596Z,99675.53
2023-08-29T12:01:06.434Z,99672.22
2023-08-29T12:03:38.023Z,99678.84
2023-08-29T12:06:13.260Z,99664.34
2023-08-29T12:08:45.033Z,99666.00
2023-08-29T12:11:16.639Z,99659.56
2023-08-29T12:14:01.145Z,99660.28
2023-08-29T12:16:29.697Z,99662.25
2023-08-29T12:19:07.590Z,99655.81
2023-08-29T12:21:35.593Z,99654.25
2023-08-29T12:24:13.284Z,99653.69
2023-08-29T12:26:42.029Z,99655.38
2023-08-29T12:29:11.053Z,99651.13
2023-08-29T12:31:39.016Z,99647.09
2023-08-29T12:34:07.436Z,99644.13
2023-08-29T12:36:36.319Z,99646.53
2023-08-29T12:39:04.488Z,99643.75
2023-08-29T12:41:34.789Z,99658.66
2023-08-29T12:44:04.206Z,99647.81
2023-08-29T12:46:32.634Z,99643.06
2023-08-29T12:49:01.514Z,99634.81
2023-08-29T12:51:29.505Z,99638.16
2023-08-29T12:53:58.543Z,99629.81
2023-08-29T12:56:26.546Z,99635.81
2023-08-29T12:58:56.326Z,99626.44
2023-08-29T13:01:29.218Z,99618.25
2023-08-29T13:03:57.689Z,99619.72
2023-08-29T13:06:27.112Z,99625.81
2023-08-29T13:08:55.243Z,99616.22
2023-08-29T13:11:23.824Z,99609.03
2023-08-29T13:13:52.284Z,99613.44
2023-08-29T13:16:32.093Z,99605.00
2023-08-29T13:19:01.041Z,99605.72
2023-08-29T13:21:29.622Z,99600.19
2023-08-29T13:23:58.285Z,99605.78
2023-08-29T13:26:26.668Z,99607.44
2023-08-29T13:28:55.115Z,99596.47
2023-08-29T13:31:26.233Z,99601.75
2023-08-29T13:33:56.455Z,99603.09
2023-08-29T13:36:25.518Z,99600.06
2023-08-29T13:38:53.518Z,99597.47
2023-08-29T13:41:21.938Z,99589.50
2023-08-29T13:43:51.086Z,99595.59
2023-08-29T13:46:19.063Z,99597.63
2023-08-29T13:48:49.319Z,99594.63
2023-08-29T13:51:17.280Z,99589.81
2023-08-29T13:53:47.168Z,99590.41
2023-08-29T13:56:15.475Z,99584.72
2023-08-29T13:58:45.628Z,99584.34
2023-08-29T14:01:15.748Z,99582.47
2023-08-29T14:03:44.911Z,99578.69
2023-08-29T14:06:14.636Z,99579.84
2023-08-29T14:08:43.050Z,99582.06
2023-08-29T14:11:11.494Z,99586.28
2023-08-29T14:13:39.448Z,99576.22
2023-08-29T14:16:07.507Z,99584.59
2023-08-29T14:18:36.046Z,99579.88
2023-08-29T14:21:04.919Z,99591.56
2023-08-29T14:23:35.204Z,99585.22
2023-08-29T14:26:03.204Z,99581.22
2023-08-29T14:28:32.121Z,99575.34
2023-08-29T14:31:00.286Z,99570.56
2023-08-29T14:33:28.268Z,99575.56
2023-08-29T14:35:57.586Z,99572.97
2023-08-29T14:38:25.733Z,99572.84
2023-08-29T14:40:55.558Z,99573.03
2023-08-29T14:43:23.586Z,99574.13
2023-08-29T14:45:53.061Z,99582.25
2023-08-29T14:48:21.522Z,99586.19
2023-08-29T14:50:49.504Z,99583.00
2023-08-29T14:53:18.367Z,99583.75
2023-08-29T14:55:46.298Z,99576.94
2023-08-29T14:58:16.086Z,99574.16
2023-08-29T15:00:45.994Z,99580.44
2023-08-29T15:03:14.735Z,99574.06
2023-08-29T15:05:43.158Z,99578.69
2023-08-29T15:08:11.667Z,99579.16
2023-08-29T15:10:40.607Z,99582.53
2023-08-29T15:13:08.639Z,99583.41
2023-08-29T15:15:40.313Z,99574.69
2023-08-29T15:18:09.657Z,99573.84
2023-08-29T15:20:40.101Z,99571.19
2023-08-29T15:23:09.395Z,99584.50
2023-08-29T15:25:37.178Z,99586.22
2023-08-29T15:28:06.223Z,99586.63
2023-08-29T15:30:35.386Z,99587.94
2023-08-29T15:33:05.841Z,99587.44
2023-08-29T15:35:34.297Z,99589.38
2023-08-29T15:38:02.276Z,99588.69
2023-08-29T15:40:30.210Z,99587.28
2023-08-29T15:43:00.668Z,99582.78
2023-08-29T15:45:29.130Z,99575.63
2023-08-29T15:47:58.491Z,99569.47
2023-08-29T15:50:28.106Z,99575.28
2023-08-29T15:52:56.632Z,99562.84
2023-08-29T15:55:25.295Z,99562.47
2023-08-29T15:57:53.278Z,99566.81
2023-08-29T16:00:22.441Z,99568.22
2023-08-29T16:02:51.183Z,99566.81
2023-08-29T16:05:22.335Z,99570.81
2023-08-29T16:07:52.267Z,99576.84
2023-08-29T16:10:20.339Z,99572.53
2023-08-29T16:12:49.289Z,99572.03
2023-08-29T16:15:17.907Z,99578.84
2023-08-29T16:17:46.909Z,99580.63
2023-08-29T16:20:16.090Z,99585.84
2023-08-29T16:22:44.249Z,99584.44
2023-08-29T16:25:14.258Z,99584.19
2023-08-29T16:27:42.370Z,99582.72
2023-08-29T16:30:12.416Z,99586.13
2023-08-29T16:32:41.486Z,99590.91
2023-08-29T16:35:10.517Z,99576.06
2023-08-29T16:37:39.817Z,99574.41
2023-08-29T16:40:09.308Z,99582.88
2023-08-29T16:42:39.707Z,99575.41
2023-08-29T16:45:10.441Z,99580.47
2023-08-29T16:47:41.580Z,99579.03
2023-08-29T16:50:10.598Z,99573.00
2023-08-29T16:52:38.570Z,99568.13
2023-08-29T16:55:08.609Z,99567.81
2023-08-29T16:57:36.651Z,99577.63
2023-08-29T17:00:11.897Z,99567.78
2023-08-29T17:02:40.041Z,99572.47
2023-08-29T17:05:10.275Z,99567.19
2023-08-29T17:07:38.258Z,99569.94
2023-08-29T17:10:07.997Z,99566.34
2023-08-29T17:12:36.088Z,99569.53
2023-08-29T17:15:07.624Z,99566.66
2023-08-29T17:17:36.019Z,99566.97
2023-08-29T17:20:04.633Z,99570.25
2023-08-29T17:22:33.545Z,99565.75
2023-08-29T17:25:03.297Z,99573.56
2023-08-29T17:27:32.306Z,99569.94
2023-08-29T17:30:06.324Z,99571.97
2023-08-29T17:32:37.815Z,99571.28
2023-08-29T17:49:56.646Z,99570.66
2023-08-29T17:52:25.135Z,99576.06
2023-08-29T17:54:53.470Z,99571.69
2023-08-29T17:57:22.543Z,99569.66
2023-08-29T17:59:55.493Z,99578.31
2023-08-29T18:02:25.148Z,99583.06
2023-08-29T18:04:55.407Z,99580.56
2023-08-29T18:07:24.216Z,99572.81
2023-08-29T18:10:08.141Z,99576.53
2023-08-29T18:12:38.800Z,99578.75
2023-08-29T18:15:08.501Z,99576.13
2023-08-29T18:17:37.763Z,99584.84
2023-08-29T18:20:09.623Z,99589.75
2023-08-29T18:22:38.414Z,99579.16
2023-08-29T18:25:08.175Z,99581.53
2023-08-29T18:27:37.687Z,99587.22
2023-08-29T18:30:07.133Z,99565.84
2023-08-29T18:32:36.744Z,99574.75
2023-08-29T18:35:05.496Z,99572.41
2023-08-29T18:37:37.423Z,99564.16
2023-08-29T18:40:10.858Z,99573.75
2023-08-29T18:42:40.977Z,99571.06
2023-08-29T18:45:11.182Z,99558.44
2023-08-29T18:47:40.572Z,99564.31
2023-08-29T18:50:11.107Z,99558.56
2023-08-29T18:55:36.975Z,99575.72
2023-08-29T18:58:13.933Z,99568.63
2023-08-29T19:00:51.002Z,99569.25
2023-08-29T19:03:22.550Z,99563.50
2023-08-29T19:05:55.116Z,99570.41
2023-08-29T19:08:35.324Z,99566.22
2023-08-29T19:11:11.995Z,99567.09
2023-08-29T19:13:41.772Z,99561.56
2023-08-29T19:16:26.542Z,99572.34
2023-08-29T19:18:56.166Z,99566.91
2023-08-29T19:21:26.196Z,99562.69
2023-08-29T19:23:59.517Z,99562.81
2023-08-29T19:26:30.909Z,99565.38
2023-08-29T19:29:06.907Z,99563.16
2023-08-29T19:31:36.162Z,99568.22
2023-08-29T19:34:06.167Z,99553.88
2023-08-29T19:36:34.958Z,99572.13
2023-08-29T19:39:16.910Z,99572.31
2023-08-29T19:41:52.317Z,99564.25
2023-08-29T19:44:25.254Z,99571.84
2023-08-29T19:47:06.788Z,99570.69
2023-08-29T19:49:39.278Z,99573.91
2023-08-29T19:52:08.642Z,99563.84
2023-08-29T19:54:38.821Z,99563.84
2023-08-29T19:57:10.643Z,99571.94
2023-08-29T19:59:41.720Z,99558.16
2023-08-29T20:02:18.516Z,99569.91
2023-08-29T20:04:49.814Z,99566.59
2023-08-29T20:07:20.382Z,99571.31
2023-08-29T20:09:50.554Z,99560.88
2023-08-29T20:12:21.267Z,99565.81
2023-08-29T20:14:54.014Z,99559.00
2023-08-29T20:17:23.357Z,99563.72
2023-08-29T20:19:52.596Z,99559.28
2023-08-29T20:28:44.238Z,99553.63
2023-08-29T20:31:12.577Z,99558.75
2023-08-29T20:33:41.109Z,99561.81
2023-08-29T20:36:09.194Z,99556.34
2023-08-29T20:38:37.806Z,99561.47
2023-08-29T20:41:05.894Z,99561.31
2023-08-29T20:43:34.830Z,99559.38
2023-08-29T20:46:08.765Z,99564.84
2023-08-29T20:48:36.907Z,99558.13
2023-08-29T20:51:05.159Z,99555.97
2023-08-29T20:53:36.271Z,99561.31
2023-08-29T20:56:04.739Z,99552.44
2023-08-29T20:58:33.131Z,99549.50
2023-08-29T21:01:02.851Z,99550.72
2023-08-29T21:03:33.591Z,99560.97
2023-08-29T21:06:02.561Z,99549.31
2023-08-29T21:08:30.778Z,99545.06
2023-08-29T21:10:58.789Z,99554.16
2023-08-29T21:13:27.600Z,99556.53
2023-08-29T21:15:56.214Z,99547.72
2023-08-29T21:18:25.107Z,99543.19
2023-08-29T21:20:56.133Z,99541.84
2023-08-29T21:23:24.924Z,99541.81
2023-08-29T21:25:53.239Z,99540.28
2023-08-29T21:28:23.724Z,99538.75
2023-08-29T21:30:54.179Z,99537.25
2023-08-29T21:33:23.079Z,99537.72
2023-08-29T21:35:55.149Z,99546.09
2023-08-29T21:38:23.525Z,99541.38
2023-08-29T21:40:53.022Z,99544.38
2023-08-29T21:43:22.369Z,99540.00
2023-08-29T21:45:54.936Z,99540.00
2023-08-29T21:48:25.422Z,99532.94
2023-08-29T21:50:56.606Z,99530.56
2023-08-29T21:53:25.340Z,99537.31
2023-08-29T21:55:54.293Z,99532.47
2023-08-29T21:58:22.850Z,99534.69
2023-08-29T22:00:54.002Z,99531.75
2023-08-29T22:03:24.729Z,99518.91
2023-08-29T22:05:53.815Z,99511.53
2023-08-29T22:08:23.412Z,99511.03
2023-08-29T22:10:52.797Z,99511.69
2023-08-29T22:13:20.817Z,99510.16
2023-08-29T22:15:50.902Z,99506.88
2023-08-29T22:18:19.179Z,99506.69
2023-08-29T22:20:47.577Z,99504.47
2023-08-29T22:23:15.624Z,99508.34
2023-08-29T22:25:46.077Z,99501.47
2023-08-29T22:28:14.141Z,99493.44
2023-08-29T22:30:42.660Z,99493.78
2023-08-29T22:33:11.278Z,99496.31
2023-08-29T22:35:41.124Z,99498.63
2023-08-29T22:38:11.136Z,99492.56
2023-08-29T22:40:39.213Z,99489.84
2023-08-29T22:43:09.252Z,99492.34
2023-08-29T22:45:38.023Z,99488.69
2023-08-29T22:48:08.028Z,99486.56
2023-08-29T22:50:37.707Z,99482.88
2023-08-29T22:53:07.163Z,99474.44
2023-08-29T22:55:37.296Z,99469.56
2023-08-29T22:58:06.678Z,99471.38
2023-08-29T23:00:37.746Z,99468.78
2023-08-29T23:03:06.820Z,99471.13
2023-08-29T23:05:35.237Z,99483.34
2023-08-29T23:08:04.397Z,99473.91
2023-08-29T23:10:32.923Z,99473.47
2023-08-29T23:13:01.903Z,99474.47
2023-08-29T23:15:30.005Z,99468.94
2023-08-29T23:17:59.501Z,99473.56
2023-08-29T23:20:28.490Z,99474.16
2023-08-29T23:22:56.458Z,99474.78
2023-08-29T23:25:26.054Z,99468.88
2023-08-29T23:27:54.045Z,99463.19
2023-08-29T23:30:22.516Z,99463.44
2023-08-29T23:32:50.604Z,99463.63
2023-08-29T23:35:21.688Z,99453.22
2023-08-29T23:37:50.646Z,99451.38
2023-08-29T23:40:20.385Z,99453.75
2023-08-29T23:42:48.865Z,99456.84
2023-08-29T23:45:17.492Z,99458.63
2023-08-29T23:47:45.577Z,99458.16
2023-08-29T23:50:13.548Z,99453.75
2023-08-29T23:52:43.814Z,99456.28
2023-08-29T23:55:11.668Z,99458.06
2023-08-29T23:57:39.667Z,99453.28
